Time;durP1;ratioP1;P1;durP2;ratioP2;P2;SDS_P1;SDS_P2;PMS_P1;PMS_P2;Temp;Humidity;BMP_temperature;BMP_pressure;BME280_temperature;BME280_humidity;BME280_pressure;Samples;Min_cycle;Max_cycle;Signal;HPM_P1;HPM_P2
2023/02/08 00:01:05;;;;;;;26.60;9.40;;;;;;;;;;105862;1254;62236;-46
2023/02/08 00:03:33;;;;;;;23.80;10.40;;;;;;;;;;106970;1254;60361;-45
2023/02/08 00:06:01;;;;;;;18.20;8.30;;;;;;;;;;106319;1254;60736;-43
2023/02/08 00:08:29;;;;;;;19.00;7.50;;;;;;;;;;105947;1255;346800;-48
2023/02/08 00:13:53;;;;;;;20.10;9.20;;;;;;;;;;102576;1294;601513;-47
2023/02/08 00:16:21;;;;;;;18.10;8.00;;;;;;;;;;105954;1264;59008;-46
2023/02/08 00:18:50;;;;;;;21.00;9.20;;;;;;;;;;104918;1268;59014;-47
2023/02/08 00:21:18;;;;;;;23.10;9.90;;;;;;;;;;105044;1263;60213;-47
2023/02/08 00:23:47;;;;;;;20.50;10.40;;;;;;;;;;105351;1267;59046;-46
2023/02/08 00:26:15;;;;;;;21.70;9.70;;;;;;;;;;105108;1264;60989;-47
2023/02/08 00:28:43;;;;;;;25.70;10.10;;;;;;;;;;105128;1266;190194;-47
2023/02/08 00:31:11;;;;;;;25.20;9.70;;;;;;;;;;105291;1260;59064;-47
2023/02/08 00:33:39;;;;;;;30.90;11.90;;;;;;;;;;104939;1266;60610;-47
2023/02/08 00:36:07;;;;;;;28.10;10.60;;;;;;;;;;105027;1266;59011;-47
2023/02/08 00:38:35;;;;;;;30.40;12.10;;;;;;;;;;105243;1266;60506;-47
2023/02/08 00:41:03;;;;;;;30.10;11.90;;;;;;;;;;106132;1263;59736;-46
2023/02/08 00:43:31;;;;;;;27.90;12.30;;;;;;;;;;106439;1257;59608;-41
2023/02/08 00:45:59;;;;;;;24.30;9.90;;;;;;;;;;105643;1254;61399;-46
2023/02/08 00:48:27;;;;;;;24.30;9.20;;;;;;;;;;105758;1254;59672;-46
2023/02/08 00:51:03;;;;;;;23.20;9.50;;;;;;;;;;105445;1254;61165;-47
2023/02/08 00:53:34;;;;;;;28.00;10.00;;;;;;;;;;105550;1260;59733;-47
2023/02/08 00:56:02;;;;;;;27.40;11.00;;;;;;;;;;105723;1258;59635;-48
2023/02/08 00:58:30;;;;;;;29.20;11.70;;;;;;;;;;105499;1254;61373;-47
2023/02/08 01:00:58;;;;;;;26.90;10.60;;;;;;;;;;105467;1254;59733;-47
2023/02/08 01:03:26;;;;;;;29.80;10.30;;;;;;;;;;105938;1254;60589;-43
2023/02/08 01:06:00;;;;;;;26.80;10.60;;;;;;;;;;105592;1254;60002;-46
2023/02/08 01:08:29;;;;;;;26.30;9.40;;;;;;;;;;105494;1254;59606;-46
2023/02/08 01:11:07;;;;;;;27.10;9.50;;;;;;;;;;105536;1255;61072;-47
2023/02/08 01:13:36;;;;;;;28.20;10.70;;;;;;;;;;105356;1259;59645;-46
2023/02/08 01:16:08;;;;;;;28.90;11.80;;;;;;;;;;105412;1260;60482;-46
2023/02/08 01:18:37;;;;;;;28.20;10.40;;;;;;;;;;105406;1259;59625;-42
2023/02/08 01:21:08;;;;;;;33.30;13.40;;;;;;;;;;105303;1260;59742;-43
2023/02/08 01:23:36;;;;;;;27.60;10.50;;;;;;;;;;105304;1259;61797;-47
2023/02/08 01:26:04;;;;;;;27.70;10.50;;;;;;;;;;105471;1260;59630;-45
2023/02/08 01:28:32;;;;;;;21.50;9.30;;;;;;;;;;105316;1254;60643;-46
2023/02/08 01:31:07;;;;;;;26.00;9.00;;;;;;;;;;105344;1257;59598;-47
2023/02/08 01:33:35;;;;;;;21.30;8.80;;;;;;;;;;105273;1259;59719;-46
2023/02/08 01:36:04;;;;;;;21.50;8.80;;;;;;;;;;105289;1254;61338;-47
2023/02/08 01:38:32;;;;;;;19.90;8.70;;;;;;;;;;105551;1254;60316;-48
2023/02/08 01:41:02;;;;;;;22.30;8.20;;;;;;;;;;105398;1254;59729;-47
2023/02/08 01:43:31;;;;;;;25.20;9.30;;;;;;;;;;105662;1260;59621;-46
2023/02/08 01:45:59;;;;;;;21.00;8.90;;;;;;;;;;105327;1254;59621;-47
2023/02/08 01:48:30;;;;;;;23.50;8.80;;;;;;;;;;105486;1254;60948;-47
2023/02/08 01:51:00;;;;;;;26.50;10.30;;;;;;;;;;105178;1259;59642;-48
2023/02/08 01:53:29;;;;;;;30.80;9.80;;;;;;;;;;105666;1260;59784;-46
2023/02/08 01:55:59;;;;;;;21.80;8.50;;;;;;;;;;105565;1250;59685;-47
2023/02/08 01:58:29;;;;;;;22.20;8.90;;;;;;;;;;105844;1251;59665;-47
2023/02/08 02:00:58;;;;;;;22.90;9.50;;;;;;;;;;106142;1250;60449;-47
2023/02/08 02:03:26;;;;;;;20.80;8.70;;;;;;;;;;105564;1252;59766;-47
2023/02/08 02:06:00;;;;;;;22.40;8.50;;;;;;;;;;105476;1256;60674;-44
2023/02/08 02:08:32;;;;;;;25.60;9.30;;;;;;;;;;105738;1250;59614;-45
2023/02/08 02:11:05;;;;;;;19.90;8.50;;;;;;;;;;105549;1251;59697;-46
2023/02/08 02:13:35;;;;;;;23.30;8.50;;;;;;;;;;105515;1252;60209;-48
2023/02/08 02:16:03;;;;;;;20.00;8.50;;;;;;;;;;105656;1253;59500;-46
2023/02/08 02:18:31;;;;;;;23.80;8.80;;;;;;;;;;106114;1251;60605;-45
2023/02/08 02:21:16;;;;;;;24.20;8.90;;;;;;;;;;105834;1257;59714;-47
2023/02/08 02:23:44;;;;;;;23.60;8.30;;;;;;;;;;105779;1251;59630;-46
2023/02/08 02:26:31;;;;;;;19.00;8.20;;;;;;;;;;105619;1255;61484;-47
2023/02/08 02:29:07;;;;;;;26.10;10.40;;;;;;;;;;105732;1250;59630;-48
2023/02/08 02:32:08;;;;;;;22.90;8.20;;;;;;;;;;106512;1253;59812;-47
2023/02/08 02:34:38;;;;;;;26.80;10.50;;;;;;;;;;105524;1258;59573;-48
2023/02/08 02:37:06;;;;;;;30.70;10.10;;;;;;;;;;105926;1251;59602;-48
2023/02/08 02:39:38;;;;;;;23.90;9.30;;;;;;;;;;105708;1253;61119;-47
2023/02/08 02:45:07;;;;;;;25.30;10.00;;;;;;;;;;105915;1251;60757;-46
2023/02/08 02:47:39;;;;;;;21.60;9.70;;;;;;;;;;105979;1253;59714;-46
2023/02/08 02:50:13;;;;;;;26.00;10.90;;;;;;;;;;105807;1251;59581;-47
2023/02/08 02:52:55;;;;;;;21.40;9.90;;;;;;;;;;105663;1250;61362;-45
2023/02/08 02:55:23;;;;;;;21.70;9.30;;;;;;;;;;105762;1253;59458;-43
2023/02/08 02:57:50;;;;;;;24.90;9.90;;;;;;;;;;105592;1251;60483;-46
2023/02/08 03:00:22;;;;;;;28.50;10.40;;;;;;;;;;105643;1256;59631;-44
2023/02/08 03:02:50;;;;;;;30.30;12.60;;;;;;;;;;105421;1253;60762;-44
2023/02/08 03:05:18;;;;;;;25.00;9.90;;;;;;;;;;105717;1251;61362;-43
2023/02/08 03:07:49;;;;;;;24.50;10.20;;;;;;;;;;106325;1250;59519;-42
2023/02/08 03:10:26;;;;;;;28.20;11.10;;;;;;;;;;105607;1253;60707;-43
2023/02/08 03:13:24;;;;;;;31.70;10.90;;;;;;;;;;105834;1253;59598;-45
2023/02/08 03:16:00;;;;;;;24.80;10.00;;;;;;;;;;105864;1251;59547;-45
2023/02/08 03:18:51;;;;;;;23.40;8.40;;;;;;;;;;105988;1250;60421;-46
2023/02/08 03:21:22;;;;;;;25.70;9.40;;;;;;;;;;106316;1253;59718;-44
2023/02/08 03:23:50;;;;;;;22.40;8.90;;;;;;;;;;105742;1252;59631;-44
2023/02/08 03:26:19;;;;;;;24.10;10.50;;;;;;;;;;105734;1250;59700;-46
2023/02/08 03:28:55;;;;;;;27.70;8.50;;;;;;;;;;105874;1251;59704;-44
2023/02/08 03:31:26;;;;;;;20.70;9.10;;;;;;;;;;105784;1251;61408;-43
2023/02/08 03:34:00;;;;;;;19.90;8.20;;;;;;;;;;106056;1252;59835;-44
2023/02/08 03:36:31;;;;;;;18.00;6.60;;;;;;;;;;105878;1253;60492;-42
2023/02/08 03:39:00;;;;;;;21.00;8.60;;;;;;;;;;105873;1252;59756;-43
2023/02/08 03:41:30;;;;;;;26.00;8.70;;;;;;;;;;105749;1254;59608;-45
2023/02/08 03:44:00;;;;;;;18.10;7.60;;;;;;;;;;105708;1253;61019;-44
2023/02/08 03:46:30;;;;;;;26.50;8.80;;;;;;;;;;105917;1251;59662;-48
2023/02/08 03:48:58;;;;;;;23.20;7.60;;;;;;;;;;105747;1251;60740;-45
2023/02/08 03:51:26;;;;;;;23.40;9.40;;;;;;;;;;105933;1253;59861;-45
2023/02/08 03:53:54;;;;;;;27.50;9.10;;;;;;;;;;106004;1251;59989;-42
2023/02/08 03:56:29;;;;;;;23.40;9.10;;;;;;;;;;105774;1250;61337;-42
2023/02/08 03:58:57;;;;;;;;;;;;;;;;;;105847;1250;59682;-43
2023/02/08 04:01:45;;;;;;;18.10;7.40;;;;;;;;;;107188;1248;60579;-43
2023/02/08 04:04:13;;;;;;;20.80;8.20;;;;;;;;;;105837;1253;59714;-47
2023/02/08 04:06:41;;;;;;;26.10;8.60;;;;;;;;;;106026;1251;59704;-43
2023/02/08 04:09:10;;;;;;;24.90;7.90;;;;;;;;;;105892;1251;61310;-42
2023/02/08 04:11:38;;;;;;;25.70;9.00;;;;;;;;;;106234;1253;59721;-44
2023/02/08 04:14:06;;;;;;;24.30;9.70;;;;;;;;;;105926;1248;60467;-42
2023/02/08 04:16:33;;;;;;;27.80;9.20;;;;;;;;;;106059;1253;59713;-45
2023/02/08 04:19:01;;;;;;;26.40;9.30;;;;;;;;;;105985;1253;60076;-43
2023/02/08 04:21:29;;;;;;;25.70;9.80;;;;;;;;;;105850;1250;61118;-42
2023/02/08 04:23:57;;;;;;;26.50;9.70;;;;;;;;;;105827;1253;59523;-44
2023/02/08 04:26:25;;;;;;;28.20;10.70;;;;;;;;;;105816;1250;60802;-46
2023/02/08 04:28:53;;;;;;;27.50;10.30;;;;;;;;;;106026;1253;60526;-45
2023/02/08 04:31:21;;;;;;;29.10;11.40;;;;;;;;;;105747;1251;60421;-42
2023/02/08 04:33:50;;;;;;;29.10;11.80;;;;;;;;;;106234;1250;60827;-42
2023/02/08 04:36:18;;;;;;;29.00;10.40;;;;;;;;;;105965;1249;60437;-41
2023/02/08 04:38:45;;;;;;;30.30;11.00;;;;;;;;;;105877;1252;60692;-44
2023/02/08 04:41:14;;;;;;;30.30;11.40;;;;;;;;;;105828;1250;60323;-42
2023/02/08 04:43:41;;;;;;;31.10;10.80;;;;;;;;;;105887;1252;60505;-43
2023/02/08 04:46:09;;;;;;;25.40;9.20;;;;;;;;;;105887;1250;62054;-45
2023/02/08 04:48:38;;;;;;;35.40;12.10;;;;;;;;;;105803;1251;60637;-42
2023/02/08 04:51:06;;;;;;;28.40;11.70;;;;;;;;;;105878;1251;60263;-40
2023/02/08 04:53:34;;;;;;;34.40;10.80;;;;;;;;;;105993;1250;60408;-45
2023/02/08 04:56:02;;;;;;;29.70;11.30;;;;;;;;;;105888;1249;60261;-45
2023/02/08 04:58:30;;;;;;;27.90;10.70;;;;;;;;;;108040;1250;63463;-46
2023/02/08 05:00:59;;;;;;;26.40;10.70;;;;;;;;;;106106;1253;60341;-42
2023/02/08 05:03:27;;;;;;;31.30;11.60;;;;;;;;;;105951;1251;60899;-43
2023/02/08 05:05:55;;;;;;;26.00;11.00;;;;;;;;;;105798;1253;61161;-45
2023/02/08 05:08:23;;;;;;;27.40;10.20;;;;;;;;;;106084;1251;60504;-43
2023/02/08 05:10:51;;;;;;;26.30;9.60;;;;;;;;;;105987;1250;62195;-44
2023/02/08 05:13:19;;;;;;;28.00;11.00;;;;;;;;;;105703;1253;60408;-44
2023/02/08 05:15:47;;;;;;;36.10;12.50;;;;;;;;;;106757;1252;60490;-43
2023/02/08 05:18:18;;;;;;;27.60;11.70;;;;;;;;;;105744;1254;60364;-44
2023/02/08 05:20:53;;;;;;;34.00;13.60;;;;;;;;;;105917;1253;60598;-43
2023/02/08 05:23:21;;;;;;;29.00;10.70;;;;;;;;;;105826;1251;61895;-43
2023/02/08 05:25:49;;;;;;;31.00;12.30;;;;;;;;;;105829;1248;60527;-44
2023/02/08 05:28:17;;;;;;;32.50;12.30;;;;;;;;;;105743;1251;60882;-45
2023/02/08 05:30:45;;;;;;;30.00;11.30;;;;;;;;;;106231;1253;60334;-44
2023/02/08 05:33:13;;;;;;;33.60;12.60;;;;;;;;;;105571;1250;60466;-44
2023/02/08 05:35:41;;;;;;;30.20;12.20;;;;;;;;;;105698;1251;62311;-42
2023/02/08 05:38:09;;;;;;;28.40;11.10;;;;;;;;;;105637;1251;60410;-44
2023/02/08 05:40:37;;;;;;;33.70;12.40;;;;;;;;;;105660;1252;60989;-45
2023/02/08 05:43:06;;;;;;;29.70;10.90;;;;;;;;;;105549;1251;60539;-44
2023/02/08 05:45:34;;;;;;;28.50;12.50;;;;;;;;;;105869;1252;60563;-45
2023/02/08 05:48:02;;;;;;;35.70;13.80;;;;;;;;;;105526;1251;61322;-43
2023/02/08 05:50:30;;;;;;;38.40;13.80;;;;;;;;;;105475;1253;60509;-43
2023/02/08 05:52:58;;;;;;;36.80;14.40;;;;;;;;;;105371;1251;60580;-45
2023/02/08 05:55:27;;;;;;;42.30;14.20;;;;;;;;;;105424;1251;61035;-44
2023/02/08 05:57:55;;;;;;;32.60;13.30;;;;;;;;;;105429;1251;60530;-45
2023/02/08 06:00:23;;;;;;;30.70;11.50;;;;;;;;;;106136;1249;61846;-45
2023/02/08 06:02:52;;;;;;;34.70;12.50;;;;;;;;;;105786;1253;60443;-46
2023/02/08 06:05:20;;;;;;;34.40;13.40;;;;;;;;;;105645;1252;60786;-45
2023/02/08 06:07:47;;;;;;;33.20;13.20;;;;;;;;;;105523;1253;59275;-45
2023/02/08 06:10:16;;;;;;;38.00;13.80;;;;;;;;;;105763;1253;60926;-45
2023/02/08 06:12:44;;;;;;;36.80;15.00;;;;;;;;;;105500;1249;62328;-45
2023/02/08 06:15:12;;;;;;;39.10;14.40;;;;;;;;;;105872;1251;60517;-46
2023/02/08 06:17:41;;;;;;;43.30;16.00;;;;;;;;;;105856;1251;60533;-45
2023/02/08 06:20:10;;;;;;;34.60;15.30;;;;;;;;;;105431;1253;60422;-45
2023/02/08 06:22:38;;;;;;;40.40;14.20;;;;;;;;;;105505;1251;60405;-45
2023/02/08 06:25:06;;;;;;;41.30;17.30;;;;;;;;;;106024;1253;61887;-44
2023/02/08 06:27:34;;;;;;;40.80;16.50;;;;;;;;;;105810;1251;60316;-45
2023/02/08 06:30:03;;;;;;;39.90;17.10;;;;;;;;;;105823;1253;62197;-44
2023/02/08 06:32:31;;;;;;;42.60;14.50;;;;;;;;;;105668;1250;60539;-45
2023/02/08 06:34:58;;;;;;;38.00;15.80;;;;;;;;;;105769;1251;60606;-45
2023/02/08 06:37:26;;;;;;;37.10;16.10;;;;;;;;;;105829;1253;62187;-45
2023/02/08 06:39:54;;;;;;;44.70;19.30;;;;;;;;;;105737;1252;60421;-46
2023/02/08 06:42:22;;;;;;;45.40;20.40;;;;;;;;;;106088;1251;60704;-46
2023/02/08 06:44:52;;;;;;;52.80;22.60;;;;;;;;;;105800;1251;60527;-45
2023/02/08 06:47:22;;;;;;;56.40;23.70;;;;;;;;;;106210;1251;60364;-46
2023/02/08 06:49:50;;;;;;;59.90;22.00;;;;;;;;;;105747;1252;62114;-45
2023/02/08 06:52:18;;;;;;;54.10;23.90;;;;;;;;;;105851;1253;60560;-46
2023/02/08 06:54:47;;;;;;;53.50;22.50;;;;;;;;;;106212;1251;60533;-44
2023/02/08 06:57:15;;;;;;;59.20;23.30;;;;;;;;;;105871;1253;60278;-45
2023/02/08 06:59:43;;;;;;;57.20;26.60;;;;;;;;;;105661;1250;60469;-45
2023/02/08 07:02:14;;;;;;;62.80;26.40;;;;;;;;;;105785;1253;61867;-45
2023/02/08 07:04:44;;;;;;;71.10;27.60;;;;;;;;;;105812;1253;60322;-45
2023/02/08 07:07:12;;;;;;;59.40;26.60;;;;;;;;;;106126;1251;61223;-46
2023/02/08 07:09:40;;;;;;;61.90;26.70;;;;;;;;;;105961;1253;60453;-46
2023/02/08 07:12:08;;;;;;;67.70;28.00;;;;;;;;;;105675;1251;60411;-46
2023/02/08 07:14:38;;;;;;;60.30;24.60;;;;;;;;;;105675;1254;61849;-46
2023/02/08 07:17:06;;;;;;;67.80;28.20;;;;;;;;;;105780;1253;60529;-45
2023/02/08 07:19:34;;;;;;;80.40;34.30;;;;;;;;;;105211;1251;61435;-45
2023/02/08 07:22:06;;;;;;;71.10;30.40;;;;;;;;;;106444;1251;60502;-45
2023/02/08 07:24:35;;;;;;;67.50;28.10;;;;;;;;;;105463;1250;60733;-45
2023/02/08 07:27:03;;;;;;;63.10;27.80;;;;;;;;;;105542;1253;62119;-46
2023/02/08 07:29:31;;;;;;;63.60;26.40;;;;;;;;;;105719;1253;60471;-46
2023/02/08 07:31:59;;;;;;;50.90;22.70;;;;;;;;;;106466;1253;60691;-46
2023/02/08 07:34:28;;;;;;;61.70;24.80;;;;;;;;;;106270;1253;60536;-43
2023/02/08 07:36:56;;;;;;;50.60;22.60;;;;;;;;;;105646;1251;60415;-43
2023/02/08 07:39:24;;;;;;;50.90;18.90;;;;;;;;;;105592;1254;62294;-44
2023/02/08 07:41:52;;;;;;;53.70;21.00;;;;;;;;;;105847;1251;60463;-45
2023/02/08 07:44:20;;;;;;;42.50;20.10;;;;;;;;;;105717;1252;60515;-45
2023/02/08 07:46:48;;;;;;;52.40;20.50;;;;;;;;;;105801;1251;60558;-45
2023/02/08 07:49:17;;;;;;;43.40;19.70;;;;;;;;;;105606;1253;60651;-45
2023/02/08 07:51:45;;;;;;;53.20;22.30;;;;;;;;;;105648;1253;61830;-43
2023/02/08 07:54:13;;;;;;;45.60;18.50;;;;;;;;;;105359;1253;60432;-46
2023/02/08 07:56:43;;;;;;;47.90;21.30;;;;;;;;;;105474;1251;61090;-45
2023/02/08 07:59:11;;;;;;;48.40;20.00;;;;;;;;;;105335;1256;60750;-45
2023/02/08 08:01:39;;;;;;;58.60;23.70;;;;;;;;;;106387;1250;60506;-44
2023/02/08 08:04:08;;;;;;;54.30;25.00;;;;;;;;;;106242;1253;62142;-45
2023/02/08 08:06:36;;;;;;;53.60;23.60;;;;;;;;;;106021;1253;60424;-42
2023/02/08 08:09:04;;;;;;;51.30;21.30;;;;;;;;;;105848;1255;60606;-45
2023/02/08 08:11:33;;;;;;;43.80;21.00;;;;;;;;;;105959;1251;60508;-45
2023/02/08 08:14:01;;;;;;;55.30;22.40;;;;;;;;;;105993;1256;60443;-44
2023/02/08 08:16:29;;;;;;;52.10;23.20;;;;;;;;;;105977;1253;61829;-45
2023/02/08 08:18:59;;;;;;;58.30;26.50;;;;;;;;;;105728;1251;60424;-45
2023/02/08 08:21:27;;;;;;;67.60;27.50;;;;;;;;;;106562;1251;60636;-45
2023/02/08 08:23:55;;;;;;;52.30;23.20;;;;;;;;;;106378;1249;60420;-45
2023/02/08 08:26:23;;;;;;;51.50;23.70;;;;;;;;;;105907;1251;60418;-43
2023/02/08 08:28:51;;;;;;;50.60;24.30;;;;;;;;;;106087;1251;62152;-44
2023/02/08 08:31:19;;;;;;;52.60;22.70;;;;;;;;;;109201;1252;59048;-45
2023/02/08 08:33:48;;;;;;;48.90;22.10;;;;;;;;;;106182;1253;62466;-44
2023/02/08 08:36:15;;;;;;;51.80;21.90;;;;;;;;;;105850;1251;60535;-45
2023/02/08 08:38:43;;;;;;;52.40;25.20;;;;;;;;;;106017;1251;60469;-46
2023/02/08 08:41:20;;;;;;;49.40;22.00;;;;;;;;;;105931;1254;62244;-46
2023/02/08 08:43:49;;;;;;;47.60;22.90;;;;;;;;;;106035;1253;60322;-44
2023/02/08 08:46:17;;;;;;;53.90;27.20;;;;;;;;;;105808;1251;62080;-45
2023/02/08 08:48:45;;;;;;;56.70;25.70;;;;;;;;;;105750;1258;60628;-44
2023/02/08 08:51:13;;;;;;;48.70;20.90;;;;;;;;;;105935;1250;60430;-47
2023/02/08 08:53:42;;;;;;;44.10;20.30;;;;;;;;;;106503;1251;62299;-45
2023/02/08 08:56:10;;;;;;;43.00;19.10;;;;;;;;;;105963;1251;60415;-44
2023/02/08 08:58:38;;;;;;;34.80;16.80;;;;;;;;;;105919;1251;60795;-46
2023/02/08 09:01:06;;;;;;;40.50;17.90;;;;;;;;;;106034;1251;60640;-47
2023/02/08 09:03:34;;;;;;;41.70;18.80;;;;;;;;;;105931;1251;60402;-47
2023/02/08 09:06:02;;;;;;;44.40;20.60;;;;;;;;;;105852;1253;62191;-44
2023/02/08 09:08:31;;;;;;;44.20;19.50;;;;;;;;;;106367;1251;60433;-45
2023/02/08 09:11:03;;;;;;;45.00;20.90;;;;;;;;;;106076;1251;60827;-45
2023/02/08 09:13:31;;;;;;;42.10;18.40;;;;;;;;;;106756;1253;59826;-45
2023/02/08 09:16:03;;;;;;;37.10;17.40;;;;;;;;;;106105;1254;60264;-45
2023/02/08 09:18:36;;;;;;;42.40;19.70;;;;;;;;;;105784;1251;61161;-45
2023/02/08 09:21:08;;;;;;;40.10;17.90;;;;;;;;;;105902;1255;60427;-42
2023/02/08 09:23:36;;;;;;;42.00;18.00;;;;;;;;;;105831;1251;61077;-47
2023/02/08 09:26:04;;;;;;;41.60;17.30;;;;;;;;;;105885;1250;60406;-45
2023/02/08 09:28:32;;;;;;;34.60;16.90;;;;;;;;;;105897;1251;60511;-45
2023/02/08 09:31:10;;;;;;;27.50;13.70;;;;;;;;;;106075;1249;62131;-45
2023/02/08 09:33:38;;;;;;;32.00;13.70;;;;;;;;;;106344;1251;60436;-45
2023/02/08 09:36:07;;;;;;;28.90;12.90;;;;;;;;;;106129;1252;60743;-43
2023/02/08 09:38:35;;;;;;;32.30;15.80;;;;;;;;;;106584;1251;60529;-44
2023/02/08 09:41:12;;;;;;;28.00;13.40;;;;;;;;;;105921;1250;60336;-43
2023/02/08 09:43:53;;;;;;;37.80;16.50;;;;;;;;;;105848;1252;62268;-43
2023/02/08 09:46:21;;;;;;;37.80;16.90;;;;;;;;;;106958;1253;59674;-46
2023/02/08 09:48:49;;;;;;;39.80;18.90;;;;;;;;;;105718;1256;60617;-42
2023/02/08 09:51:21;;;;;;;36.70;15.90;;;;;;;;;;107128;1251;60571;-45
2023/02/08 09:53:51;;;;;;;32.40;15.40;;;;;;;;;;105802;1253;60419;-46
2023/02/08 09:56:20;;;;;;;31.70;13.30;;;;;;;;;;105884;1254;63143;-44
2023/02/08 09:58:48;;;;;;;36.00;14.00;;;;;;;;;;105734;1251;60406;-47
2023/02/08 10:01:29;;;;;;;31.50;13.40;;;;;;;;;;106008;1253;61011;-45
2023/02/08 10:04:05;;;;;;;30.20;12.60;;;;;;;;;;105716;1255;60418;-44
2023/02/08 10:06:33;;;;;;;33.60;14.70;;;;;;;;;;105866;1253;60694;-44
2023/02/08 10:09:02;;;;;;;29.60;13.20;;;;;;;;;;106045;1250;61946;-47
2023/02/08 10:11:42;;;;;;;19.50;9.30;;;;;;;;;;105744;1251;60540;-43
2023/02/08 10:14:10;;;;;;;25.10;10.10;;;;;;;;;;105920;1251;60392;-45
2023/02/08 10:16:44;;;;;;;16.70;8.00;;;;;;;;;;105975;1251;60859;-46
2023/02/08 10:19:32;;;;;;;16.10;5.90;;;;;;;;;;105575;1255;60867;-47
2023/02/08 10:22:08;;;;;;;12.60;5.80;;;;;;;;;;105430;1253;62158;-45
2023/02/08 10:24:48;;;;;;;20.80;7.90;;;;;;;;;;105898;1250;60421;-46
2023/02/08 10:27:17;;;;;;;16.50;8.30;;;;;;;;;;105458;1251;62044;-42
2023/02/08 10:29:57;;;;;;;16.40;8.00;;;;;;;;;;105348;1251;60488;-43
2023/02/08 10:32:37;;;;;;;21.40;8.60;;;;;;;;;;107164;1253;60443;-45
2023/02/08 10:35:08;;;;;;;19.00;7.20;;;;;;;;;;105687;1251;62065;-45
2023/02/08 10:37:37;;;;;;;21.60;8.90;;;;;;;;;;109164;1251;59034;-45
2023/02/08 10:40:17;;;;;;;20.30;7.70;;;;;;;;;;105278;1251;60932;-43
2023/02/08 10:43:06;;;;;;;14.30;7.10;;;;;;;;;;105502;1253;60485;-46
2023/02/08 10:45:37;;;;;;;15.90;6.40;;;;;;;;;;105872;1250;60425;-47
2023/02/08 10:48:09;;;;;;;14.80;6.10;;;;;;;;;;105817;1250;62343;-47
2023/02/08 10:50:41;;;;;;;17.60;7.80;;;;;;;;;;105769;1253;60447;-46
2023/02/08 10:53:12;;;;;;;18.20;8.00;;;;;;;;;;105210;1251;60415;-43
2023/02/08 10:55:40;;;;;;;19.50;8.20;;;;;;;;;;105187;1253;60645;-46
2023/02/08 10:58:13;;;;;;;23.90;7.70;;;;;;;;;;105271;1251;60418;-45
2023/02/08 11:00:41;;;;;;;15.00;6.60;;;;;;;;;;105793;1254;62117;-44
2023/02/08 11:03:16;;;;;;;21.40;7.20;;;;;;;;;;105757;1252;60713;-43
2023/02/08 11:05:46;;;;;;;19.30;8.20;;;;;;;;;;105826;1254;61063;-45
2023/02/08 11:08:18;;;;;;;20.00;7.20;;;;;;;;;;105998;1254;60419;-44
2023/02/08 11:11:01;;;;;;;22.80;7.60;;;;;;;;;;105757;1253;60519;-46
2023/02/08 11:13:31;;;;;;;;;;;;;;;;;;105412;1252;62031;-47
2023/02/08 11:16:01;;;;;;;21.70;9.10;;;;;;;;;;106948;1253;60545;-44
2023/02/08 11:18:33;;;;;;;16.60;7.30;;;;;;;;;;106087;1253;60446;-48
2023/02/08 11:21:02;;;;;;;18.20;8.30;;;;;;;;;;105765;1254;60447;-43
2023/02/08 11:23:35;;;;;;;19.50;9.10;;;;;;;;;;105772;1251;61068;-44
2023/02/08 11:26:16;;;;;;;16.10;7.50;;;;;;;;;;105794;1251;62079;-45
2023/02/08 11:28:57;;;;;;;17.60;7.50;;;;;;;;;;105893;1251;60456;-45
2023/02/08 11:31:25;;;;;;;24.30;7.70;;;;;;;;;;106089;1255;60975;-45
2023/02/08 11:33:56;;;;;;;14.00;6.70;;;;;;;;;;105964;1253;60537;-44
2023/02/08 11:36:24;;;;;;;19.20;9.10;;;;;;;;;;106046;1251;60512;-43
2023/02/08 11:38:53;;;;;;;16.30;6.70;;;;;;;;;;105806;1252;61856;-41
2023/02/08 11:41:22;;;;;;;22.70;10.20;;;;;;;;;;105821;1251;60491;-45
2023/02/08 11:44:03;;;;;;;22.50;8.40;;;;;;;;;;105840;1251;60741;-45
2023/02/08 11:46:32;;;;;;;19.80;7.80;;;;;;;;;;106526;1253;60782;-45
2023/02/08 11:49:02;;;;;;;19.80;8.30;;;;;;;;;;106524;1250;60455;-44
2023/02/08 11:51:35;;;;;;;25.50;11.10;;;;;;;;;;106235;1251;61882;-45
2023/02/08 11:54:03;;;;;;;29.80;10.90;;;;;;;;;;105802;1254;60409;-46
2023/02/08 11:56:32;;;;;;;26.70;13.20;;;;;;;;;;105975;1254;60682;-44
2023/02/08 11:59:03;;;;;;;30.80;13.90;;;;;;;;;;105773;1253;60527;-45
2023/02/08 12:01:34;;;;;;;25.10;11.80;;;;;;;;;;106009;1251;60344;-45
2023/02/08 12:04:03;;;;;;;25.30;11.60;;;;;;;;;;106344;1254;62047;-46
2023/02/08 12:06:41;;;;;;;20.30;10.20;;;;;;;;;;105847;1253;60398;-46
2023/02/08 12:09:29;;;;;;;16.80;8.50;;;;;;;;;;106006;1253;60421;-45
2023/02/08 12:12:20;;;;;;;21.00;8.00;;;;;;;;;;109400;1251;59372;-46
2023/02/08 12:14:51;;;;;;;17.60;7.60;;;;;;;;;;106339;1251;60386;-46
2023/02/08 12:17:26;;;;;;;18.30;7.90;;;;;;;;;;105382;1251;61151;-47
2023/02/08 12:20:01;;;;;;;17.70;8.60;;;;;;;;;;105341;1254;60527;-44
2023/02/08 12:22:29;;;;;;;18.10;8.60;;;;;;;;;;106962;1253;60907;-46
2023/02/08 12:24:57;;;;;;;21.30;9.50;;;;;;;;;;106180;1251;60514;-44
2023/02/08 12:27:26;;;;;;;24.50;11.00;;;;;;;;;;105861;1254;147525;-43
2023/02/08 12:32:20;;;;;;;24.50;10.60;;;;;;;-1.99;100.00;103422.17;102329;1295;600468;-44
2023/02/08 12:34:54;;;;;;;26.00;11.20;;;;;;;-1.95;100.00;103361.33;104976;1269;59850;-44
2023/02/08 12:40:58;;;;;;;23.80;11.40;;;;;;;-1.97;100.00;103292.27;108311;1265;72795;-46
2023/02/08 12:43:57;;;;;;;21.30;9.90;;;;;;;-1.98;100.00;103277.36;104727;1270;66385;-46
2023/02/08 12:46:47;;;;;;;23.10;9.80;;;;;;;-1.97;100.00;103256.30;104557;1267;178558;-46
2023/02/08 12:49:31;;;;;;;21.00;10.50;;;;;;;-1.99;100.00;103241.21;104909;1266;59375;-45
2023/02/08 12:52:12;;;;;;;18.50;8.70;;;;;;;-2.03;100.00;103227.64;104824;1264;59617;-45
2023/02/08 12:54:49;;;;;;;16.70;7.20;;;;;;;-2.08;100.00;103215.18;104584;1264;73547;-44
2023/02/08 12:57:19;;;;;;;17.10;6.80;;;;;;;-2.13;100.00;103203.83;104634;1269;66794;-45
2023/02/08 13:00:06;;;;;;;18.00;7.00;;;;;;;-2.16;100.00;103193.92;104963;1263;73645;-44
2023/02/08 13:02:43;;;;;;;12.40;6.60;;;;;;;-2.20;100.00;103189.67;104656;1269;59591;-46
2023/02/08 13:05:17;;;;;;;11.80;5.40;;;;;;;-2.22;100.00;103182.67;104690;1267;60246;-46
2023/02/08 13:07:49;;;;;;;16.50;6.60;;;;;;;-2.25;100.00;103173.02;104315;1269;71850;-43
2023/02/08 13:10:19;;;;;;;11.20;5.50;;;;;;;-2.29;100.00;103164.91;105872;1264;67051;-45
2023/02/08 13:12:52;;;;;;;16.00;7.20;;;;;;;-2.29;100.00;103164.51;104993;1268;72316;-45
2023/02/08 13:15:26;;;;;;;21.00;8.60;;;;;;;-2.32;100.00;103157.70;104625;1270;59749;-46
2023/02/08 13:18:01;;;;;;;18.00;8.10;;;;;;;-2.33;100.00;103153.05;105147;1269;59512;-45
2023/02/08 13:20:55;;;;;;;24.90;8.80;;;;;;;-2.35;100.00;103147.48;104979;1263;71356;-45
2023/02/08 13:23:27;;;;;;;22.10;10.20;;;;;;;-2.36;100.00;103149.02;104719;1270;67242;-46
2023/02/08 13:26:05;;;;;;;24.80;9.70;;;;;;;-2.36;100.00;103142.98;104625;1270;71833;-45
2023/02/08 13:28:33;;;;;;;25.20;9.10;;;;;;;-2.38;100.00;103140.10;105021;1269;59516;-46
2023/02/08 13:31:10;;;;;;;23.90;10.40;;;;;;;-2.41;100.00;103127.28;104830;1269;60012;-46
2023/02/08 13:33:48;;;;;;;22.50;10.10;;;;;;;-2.44;100.00;103123.58;105019;1264;71921;-45
2023/02/08 13:36:32;;;;;;;22.90;9.60;;;;;;;-2.47;100.00;103118.09;105918;1269;68013;-44
2023/02/08 13:39:03;;;;;;;22.90;9.20;;;;;;;-2.49;100.00;103113.27;104748;1267;72940;-46
2023/02/08 13:41:35;;;;;;;26.30;11.00;;;;;;;-2.48;100.00;103107.82;104914;1270;60900;-44
2023/02/08 13:44:08;;;;;;;20.80;10.00;;;;;;;-2.49;100.00;103100.40;105217;1270;59601;-44
2023/02/08 13:46:42;;;;;;;23.90;9.90;;;;;;;-2.50;100.00;103101.40;105630;1269;72963;-46
2023/02/08 13:49:43;;;;;;;16.50;8.80;;;;;;;-2.51;100.00;103098.36;105929;1268;68449;-46
2023/02/08 13:52:11;;;;;;;18.30;7.90;;;;;;;-2.51;100.00;103097.96;104562;1272;73669;-45
2023/02/08 13:54:40;;;;;;;15.00;6.70;;;;;;;-2.53;100.00;103089.92;105895;1271;60687;-46
2023/02/08 13:57:45;;;;;;;15.70;6.80;;;;;;;-2.56;100.00;103082.40;104750;1269;60416;-45
2023/02/08 14:00:16;;;;;;;;;;;;;;;-2.60;100.00;103082.35;104808;1269;72968;-45
2023/02/08 14:03:13;;;;;;;15.30;6.30;;;;;;;-2.63;100.00;103076.35;104955;1269;66562;-45
2023/02/08 14:05:42;;;;;;;14.00;4.60;;;;;;;-2.67;100.00;103080.39;104750;1270;72508;-46
2023/02/08 14:08:27;;;;;;;14.00;6.40;;;;;;;-2.69;100.00;103076.55;104591;1270;59624;-47
2023/02/08 14:11:01;;;;;;;10.40;4.20;;;;;;;-2.73;100.00;103077.73;104858;1268;60083;-46
2023/02/08 14:13:32;;;;;;;14.50;7.70;;;;;;;-2.76;100.00;103077.52;105384;1257;70839;-47
2023/02/08 14:16:31;;;;;;;16.00;6.10;;;;;;;-2.80;100.00;103074.83;105397;1256;66026;-46